Time;durP1;ratioP1;P1;durP2;ratioP2;P2;SDS_P1;SDS_P2;PMS_P1;PMS_P2;Temp;Humidity;BMP_temperature;BMP_pressure;BME280_temperature;BME280_humidity;BME280_pressure;Samples;Min_cycle;Max_cycle;Signal;HPM_P1;HPM_P2
2022/08/24 00:02:15;;;;;;;2.05;0.60;;;13.40;99.90;;;;;;4996095;28;20216;-81
2022/08/24 00:04:46;;;;;;;1.90;0.70;;;13.50;99.90;;;;;;5003021;28;20202;-73
2022/08/24 00:07:18;;;;;;;2.03;0.70;;;13.60;99.90;;;;;;5004745;28;20283;-68
2022/08/24 00:09:49;;;;;;;0.60;0.60;;;13.60;99.90;;;;;;5002851;28;20193;-68
2022/08/24 00:12:21;;;;;;;1.02;0.50;;;13.60;99.90;;;;;;4999040;28;20187;-68
2022/08/24 00:14:53;;;;;;;2.45;0.82;;;13.70;99.90;;;;;;5004211;28;20199;-69
2022/08/24 00:17:24;;;;;;;2.05;0.73;;;13.70;99.90;;;;;;5008184;28;20198;-70
2022/08/24 00:19:55;;;;;;;2.30;0.50;;;13.70;99.90;;;;;;5008773;28;20270;-76
2022/08/24 00:22:27;;;;;;;2.28;0.90;;;13.90;99.90;;;;;;5009490;28;20226;-75
2022/08/24 00:24:58;;;;;;;1.65;0.70;;;13.80;99.90;;;;;;5010016;28;20209;-74
2022/08/24 00:27:29;;;;;;;1.48;0.80;;;13.90;99.90;;;;;;5010534;28;20191;-75
2022/08/24 00:30:01;;;;;;;1.98;0.60;;;13.80;99.90;;;;;;5008137;28;20205;-73
2022/08/24 00:32:32;;;;;;;3.15;0.82;;;13.90;99.90;;;;;;5008547;28;20556;-80
2022/08/24 00:35:04;;;;;;;2.25;0.70;;;14.00;99.90;;;;;;5003922;28;20195;-80
2022/08/24 00:37:34;;;;;;;1.13;0.77;;;14.10;99.90;;;;;;5009386;28;20254;-74
2022/08/24 00:40:07;;;;;;;1.90;0.60;;;14.20;99.90;;;;;;5007804;28;20188;-75
2022/08/24 00:42:37;;;;;;;1.58;0.57;;;14.40;99.90;;;;;;5008911;28;20678;-74
2022/08/24 00:45:13;;;;;;;1.98;0.80;;;14.60;99.90;;;;;;5009055;28;20194;-82
2022/08/24 00:47:46;;;;;;;3.75;0.82;;;14.70;99.90;;;;;;5008102;28;20211;-79
2022/08/24 00:50:23;;;;;;;2.92;0.90;;;14.90;99.90;;;;;;5006587;28;20206;-75
2022/08/24 00:52:58;;;;;;;1.45;0.60;;;15.00;99.90;;;;;;5014709;28;20202;-86
2022/08/24 00:55:34;;;;;;;3.33;0.88;;;14.90;99.90;;;;;;5014869;28;20650;-74
2022/08/24 00:58:09;;;;;;;1.90;0.90;;;15.00;99.90;;;;;;5015486;28;20194;-81
2022/08/24 01:00:46;;;;;;;1.20;0.63;;;15.00;99.90;;;;;;5014925;28;20201;-85
2022/08/24 01:03:18;;;;;;;2.17;0.73;;;15.20;99.90;;;;;;5015542;28;20195;-70
2022/08/24 01:05:48;;;;;;;2.40;0.70;;;15.30;99.90;;;;;;5013566;28;20202;-85
2022/08/24 01:08:22;;;;;;;1.45;0.88;;;15.20;99.90;;;;;;5013118;28;20668;-79
2022/08/24 01:10:55;;;;;;;2.42;0.80;;;15.20;99.90;;;;;;5012793;28;20202;-78
2022/08/24 01:13:27;;;;;;;2.83;0.70;;;15.20;99.90;;;;;;5012642;28;20206;-70
2022/08/24 01:16:03;;;;;;;1.92;0.80;;;15.40;99.90;;;;;;5014649;28;20646;-78
2022/08/24 01:18:50;;;;;;;1.95;0.70;;;15.40;99.90;;;;;;5014543;28;20201;-73
2022/08/24 01:21:23;;;;;;;2.75;0.82;;;15.50;99.90;;;;;;5012687;28;20239;-74
2022/08/24 01:23:58;;;;;;;1.95;0.70;;;15.60;99.90;;;;;;5012605;28;20205;-75
2022/08/24 01:26:38;;;;;;;2.33;1.00;;;15.70;99.90;;;;;;5012982;28;20200;-79
2022/08/24 01:29:11;;;;;;;2.50;0.60;;;15.80;99.90;;;;;;5010580;28;20726;-75
2022/08/24 01:31:42;;;;;;;1.10;0.50;;;16.00;99.90;;;;;;5011775;28;20234;-81
2022/08/24 01:34:13;;;;;;;2.13;0.57;;;16.10;99.90;;;;;;5013631;28;20567;-68
2022/08/24 01:36:48;;;;;;;1.60;0.75;;;16.20;99.90;;;;;;5014471;28;20222;-76
2022/08/24 01:39:23;;;;;;;1.77;0.60;;;16.40;99.90;;;;;;5014928;28;20183;-67
2022/08/24 01:41:54;;;;;;;1.25;0.52;;;16.50;99.90;;;;;;5011318;28;20233;-69
2022/08/24 01:44:27;;;;;;;3.38;0.50;;;16.60;99.90;;;;;;5010688;28;20183;-77
2022/08/24 01:46:58;;;;;;;3.30;0.82;;;16.70;99.90;;;;;;5014401;28;20227;-74
2022/08/24 01:49:31;;;;;;;1.60;0.60;;;16.60;99.90;;;;;;5012953;28;20201;-76
2022/08/24 01:52:05;;;;;;;0.95;0.45;;;16.50;99.90;;;;;;5013539;28;20206;-75
2022/08/24 01:54:39;;;;;;;1.20;0.43;;;16.60;99.90;;;;;;5011671;28;20195;-68
2022/08/24 01:57:10;;;;;;;3.35;0.80;;;16.60;99.90;;;;;;5009657;28;20612;-69
2022/08/24 01:59:40;;;;;;;1.98;0.50;;;16.70;99.90;;;;;;5014201;28;20187;-69
2022/08/24 02:02:15;;;;;;;3.13;0.70;;;16.80;99.90;;;;;;5014002;28;20718;-72
2022/08/24 02:04:46;;;;;;;2.58;0.65;;;16.80;99.90;;;;;;5014364;28;20186;-71
2022/08/24 02:07:18;;;;;;;2.97;0.73;;;16.60;99.90;;;;;;5013859;28;20195;-68
2022/08/24 02:09:50;;;;;;;2.88;0.70;;;16.50;99.90;;;;;;5013571;28;20662;-69
2022/08/24 02:12:22;;;;;;;1.35;0.50;;;16.60;99.90;;;;;;5014103;28;20195;-68
2022/08/24 02:14:53;;;;;;;3.95;0.80;;;16.60;99.90;;;;;;5012307;28;20670;-68
2022/08/24 02:17:24;;;;;;;2.28;0.30;;;16.60;99.90;;;;;;5013067;28;20279;-68
2022/08/24 02:19:54;;;;;;;1.83;0.60;;;16.70;99.90;;;;;;5013882;28;20195;-73
2022/08/24 02:22:25;;;;;;;2.55;0.70;;;16.80;99.90;;;;;;5011869;28;20234;-69
2022/08/24 02:24:58;;;;;;;1.58;0.50;;;16.70;99.90;;;;;;5013926;28;20194;-68
2022/08/24 02:27:28;;;;;;;2.13;0.50;;;16.70;99.90;;;;;;5013169;28;20195;-68
2022/08/24 02:29:59;;;;;;;1.00;0.57;;;16.80;99.90;;;;;;5014080;28;20199;-72
2022/08/24 02:32:30;;;;;;;2.08;0.57;;;16.80;99.90;;;;;;5013338;28;20194;-68
2022/08/24 02:35:01;;;;;;;1.75;0.40;;;16.70;99.90;;;;;;5013776;28;20201;-68
2022/08/24 02:37:31;;;;;;;4.15;0.70;;;16.70;99.90;;;;;;5013395;28;20246;-72
2022/08/24 02:40:05;;;;;;;1.92;0.60;;;16.80;99.90;;;;;;5013790;28;20191;-69
2022/08/24 02:42:36;;;;;;;4.78;0.65;;;16.90;99.90;;;;;;5012466;28;20678;-68
2022/08/24 02:45:07;;;;;;;1.23;0.50;;;16.90;99.90;;;;;;5013012;28;20190;-71
2022/08/24 02:47:38;;;;;;;2.15;0.50;;;16.90;99.90;;;;;;5012996;28;20187;-69
2022/08/24 02:50:13;;;;;;;1.73;0.50;;;17.10;99.90;;;;;;5013440;28;20187;-68
2022/08/24 02:52:44;;;;;;;1.42;0.50;;;17.10;99.90;;;;;;5008202;28;20645;-74
2022/08/24 02:55:19;;;;;;;2.60;0.43;;;17.20;99.90;;;;;;5004767;28;20191;-72
2022/08/24 02:57:50;;;;;;;1.38;0.40;;;17.20;99.90;;;;;;5012336;28;20194;-69
2022/08/24 03:00:23;;;;;;;1.55;0.70;;;17.00;99.90;;;;;;5012063;28;20204;-68
2022/08/24 03:02:54;;;;;;;2.35;1.13;;;17.10;99.90;;;;;;5010518;28;20218;-69
2022/08/24 03:05:26;;;;;;;1.10;0.45;;;17.00;99.90;;;;;;5009276;28;20203;-72
2022/08/24 03:07:56;;;;;;;1.15;0.50;;;16.70;99.90;;;;;;5010245;28;20237;-69
2022/08/24 03:10:29;;;;;;;1.88;0.73;;;16.60;99.90;;;;;;5011777;28;20205;-72
2022/08/24 03:13:01;;;;;;;2.20;0.90;;;16.70;99.90;;;;;;5011453;28;20646;-68
2022/08/24 03:15:32;;;;;;;1.95;0.60;;;17.00;99.90;;;;;;5011554;28;20230;-71
2022/08/24 03:18:03;;;;;;;2.72;0.57;;;17.10;99.90;;;;;;5010806;28;20209;-68
2022/08/24 03:20:33;;;;;;;1.05;0.55;;;17.10;99.90;;;;;;5007669;28;20199;-73
2022/08/24 03:23:04;;;;;;;2.15;0.50;;;17.10;99.90;;;;;;5010220;28;20222;-70
2022/08/24 03:25:37;;;;;;;1.20;0.60;;;17.10;99.90;;;;;;5010623;28;20654;-68
2022/08/24 03:28:08;;;;;;;1.48;0.60;;;17.10;99.90;;;;;;5006052;28;20198;-75
2022/08/24 03:30:38;;;;;;;2.00;0.55;;;17.10;99.90;;;;;;5009916;28;20261;-68
2022/08/24 03:33:10;;;;;;;1.88;0.60;;;17.10;99.90;;;;;;5010301;28;20209;-68
2022/08/24 03:35:41;;;;;;;0.73;0.40;;;17.10;99.90;;;;;;5011652;28;20688;-71
2022/08/24 03:38:12;;;;;;;4.45;0.70;;;17.00;99.90;;;;;;5012718;28;20230;-68
2022/08/24 03:40:45;;;;;;;1.85;0.80;;;17.00;99.90;;;;;;5009662;28;20657;-69
2022/08/24 03:45:59;;;;;;;1.52;0.43;;;16.90;99.90;;;;;;5005018;28;20230;-72
2022/08/24 03:48:30;;;;;;;2.33;0.70;;;16.80;99.90;;;;;;5010774;28;20651;-68
2022/08/24 03:51:00;;;;;;;3.58;1.10;;;16.70;99.90;;;;;;5010752;28;20191;-69
2022/08/24 03:53:31;;;;;;;5.03;1.33;;;16.50;99.90;;;;;;5011000;28;20195;-68
2022/08/24 03:56:04;;;;;;;2.42;0.77;;;16.60;99.90;;;;;;5009038;28;20205;-68
2022/08/24 03:58:35;;;;;;;1.13;0.45;;;16.80;99.90;;;;;;5009141;28;20225;-69
2022/08/24 04:01:06;;;;;;;3.25;0.60;;;16.90;99.90;;;;;;5012102;28;20430;-69
2022/08/24 04:03:39;;;;;;;1.38;0.60;;;16.90;99.90;;;;;;5011630;28;20215;-69
2022/08/24 04:06:11;;;;;;;4.63;1.00;;;16.90;99.90;;;;;;5012391;28;20195;-69
2022/08/24 04:08:42;;;;;;;1.95;0.80;;;16.90;99.90;;;;;;5012015;28;20191;-68
2022/08/24 04:11:17;;;;;;;2.22;1.00;;;16.80;99.90;;;;;;5011103;28;20206;-68
2022/08/24 04:13:49;;;;;;;2.95;0.77;;;16.80;99.90;;;;;;5011488;28;20286;-68
2022/08/24 04:16:21;;;;;;;2.28;0.85;;;16.80;99.90;;;;;;5011248;28;20608;-68
2022/08/24 04:18:52;;;;;;;4.53;1.17;;;16.80;99.90;;;;;;5009916;28;20211;-68
2022/08/24 04:21:25;;;;;;;2.42;0.90;;;16.70;99.90;;;;;;5004665;28;20219;-69
2022/08/24 04:23:56;;;;;;;2.65;0.93;;;16.70;99.90;;;;;;5009794;28;20226;-71
2022/08/24 04:26:30;;;;;;;5.53;1.00;;;16.60;99.90;;;;;;5011979;28;20198;-75
2022/08/24 04:29:02;;;;;;;3.70;1.00;;;16.50;99.90;;;;;;5011545;28;20213;-76
2022/08/24 04:31:33;;;;;;;3.85;0.80;;;16.40;99.90;;;;;;5011828;28;20195;-73
2022/08/24 04:34:04;;;;;;;2.90;0.77;;;16.30;99.90;;;;;;5010833;28;20203;-68
2022/08/24 04:36:35;;;;;;;4.32;0.90;;;16.30;99.90;;;;;;5011282;28;20226;-76
2022/08/24 04:39:06;;;;;;;2.90;0.73;;;16.30;99.90;;;;;;5010280;28;20285;-69
2022/08/24 04:41:40;;;;;;;2.75;0.80;;;16.10;99.90;;;;;;5011194;28;20213;-72
2022/08/24 04:44:11;;;;;;;4.28;1.42;;;16.10;99.90;;;;;;5011635;28;20285;-71
2022/08/24 04:46:42;;;;;;;3.30;0.80;;;16.10;99.90;;;;;;5011267;28;20189;-69
2022/08/24 04:49:13;;;;;;;3.17;0.82;;;16.10;99.90;;;;;;5011501;28;20584;-70
2022/08/24 04:51:44;;;;;;;1.85;0.80;;;16.00;99.90;;;;;;5011545;28;20200;-70
2022/08/24 04:54:14;;;;;;;5.55;1.33;;;15.90;99.90;;;;;;5011583;28;20194;-68
2022/08/24 04:56:47;;;;;;;4.18;1.83;;;15.90;99.90;;;;;;5010855;28;20442;-72
2022/08/24 04:59:18;;;;;;;6.72;2.85;;;15.90;99.90;;;;;;5011265;28;20187;-69
2022/08/24 05:01:49;;;;;;;1.80;1.05;;;15.80;99.90;;;;;;5010841;28;20190;-70
2022/08/24 05:04:20;;;;;;;5.28;1.38;;;15.80;99.90;;;;;;5011617;28;20207;-71
2022/08/24 05:06:50;;;;;;;3.55;1.50;;;15.70;99.90;;;;;;5011249;28;20233;-71
2022/08/24 05:09:21;;;;;;;10.10;3.45;;;15.70;99.90;;;;;;5014250;28;20191;-70
2022/08/24 05:11:54;;;;;;;4.63;1.17;;;15.70;99.90;;;;;;5015449;28;20191;-73
2022/08/24 05:14:25;;;;;;;1.75;0.75;;;15.70;99.90;;;;;;5007749;28;20183;-69
2022/08/24 05:16:56;;;;;;;6.63;0.88;;;15.80;99.90;;;;;;5015399;28;20708;-71
2022/08/24 05:19:27;;;;;;;9.30;1.02;;;15.90;99.90;;;;;;5015286;28;20187;-67
2022/08/24 05:21:58;;;;;;;2.42;1.05;;;15.90;99.90;;;;;;5009863;28;20224;-69
2022/08/24 05:24:29;;;;;;;6.25;1.02;;;15.90;99.90;;;;;;5014872;28;20223;-67
2022/08/24 05:27:02;;;;;;;3.03;0.90;;;15.90;99.90;;;;;;5015016;28;20203;-68
2022/08/24 05:29:33;;;;;;;3.40;1.10;;;15.90;99.90;;;;;;5014845;28;20205;-68
2022/08/24 05:32:04;;;;;;;2.90;0.90;;;15.90;99.90;;;;;;5014833;28;20258;-68
2022/08/24 05:34:35;;;;;;;2.67;0.82;;;15.80;99.90;;;;;;5014614;28;20202;-67
2022/08/24 05:37:06;;;;;;;2.13;0.80;;;15.90;99.90;;;;;;5014319;28;20227;-68
2022/08/24 05:39:37;;;;;;;3.65;1.00;;;15.80;99.90;;;;;;5014122;28;20192;-67
2022/08/24 05:42:10;;;;;;;4.85;0.80;;;15.80;99.90;;;;;;5014761;28;20234;-68
2022/08/24 05:44:40;;;;;;;6.60;0.90;;;15.80;99.90;;;;;;5014374;28;20226;-69
2022/08/24 05:47:11;;;;;;;2.92;1.00;;;15.80;99.90;;;;;;5014634;28;20559;-71
2022/08/24 05:49:42;;;;;;;3.20;0.82;;;15.70;99.90;;;;;;5014352;28;20313;-70
2022/08/24 05:52:13;;;;;;;2.65;0.70;;;15.70;99.90;;;;;;5013870;28;20622;-69
2022/08/24 05:54:44;;;;;;;3.67;0.90;;;15.70;99.90;;;;;;5014293;28;20529;-73
2022/08/24 05:57:17;;;;;;;2.80;0.80;;;15.70;99.90;;;;;;5014086;28;20187;-70
2022/08/24 05:59:48;;;;;;;3.88;0.80;;;15.70;99.90;;;;;;5014178;28;20191;-71
2022/08/24 06:02:19;;;;;;;5.25;0.98;;;15.70;99.90;;;;;;5014698;28;20187;-70
2022/08/24 06:04:50;;;;;;;2.53;0.90;;;15.70;99.90;;;;;;5013857;28;20214;-69
2022/08/24 06:07:21;;;;;;;1.70;0.82;;;15.70;99.90;;;;;;5014191;28;20238;-73
2022/08/24 06:09:52;;;;;;;2.55;1.10;;;15.60;99.90;;;;;;5013788;28;20203;-70
2022/08/24 06:12:25;;;;;;;4.63;1.15;;;15.50;99.90;;;;;;5014008;28;20191;-70
2022/08/24 06:14:56;;;;;;;3.20;1.00;;;15.50;99.90;;;;;;5012877;28;20636;-71
2022/08/24 06:17:27;;;;;;;2.67;0.80;;;15.50;99.90;;;;;;5013864;28;20190;-70
2022/08/24 06:19:57;;;;;;;3.60;1.00;;;15.50;99.90;;;;;;5012571;28;20195;-71
2022/08/24 06:22:28;;;;;;;3.78;0.98;;;15.50;99.90;;;;;;5007112;28;20305;-73
2022/08/24 06:27:47;;;;;;;2.53;0.90;;;15.40;99.90;;;;;;5014067;28;20202;-69
2022/08/24 06:30:18;;;;;;;5.28;0.95;;;15.30;99.90;;;;;;5006709;28;20570;-71
2022/08/24 06:32:49;;;;;;;4.93;0.98;;;15.30;99.90;;;;;;5013668;28;20198;-79
2022/08/24 06:35:20;;;;;;;3.42;0.80;;;15.20;99.90;;;;;;5013958;28;20201;-68
2022/08/24 06:37:50;;;;;;;3.42;1.00;;;15.20;99.90;;;;;;5013516;28;20231;-69
2022/08/24 06:40:21;;;;;;;2.13;1.10;;;15.10;99.90;;;;;;5008844;28;20187;-74
2022/08/24 06:42:54;;;;;;;2.80;0.80;;;15.10;99.90;;;;;;5012536;28;20233;-75
2022/08/24 06:45:25;;;;;;;3.75;0.93;;;15.00;99.90;;;;;;5006491;28;20199;-77
2022/08/24 06:47:55;;;;;;;3.80;0.73;;;14.90;99.90;;;;;;5013353;28;20202;-69
2022/08/24 06:50:26;;;;;;;3.50;1.00;;;14.90;99.90;;;;;;5006191;28;20237;-71
2022/08/24 06:52:57;;;;;;;2.65;0.98;;;14.80;99.90;;;;;;5012857;28;20198;-75
2022/08/24 06:55:28;;;;;;;1.50;0.80;;;14.80;99.90;;;;;;5005904;28;20188;-68
2022/08/24 06:58:01;;;;;;;2.83;0.95;;;14.70;99.90;;;;;;5005125;28;20187;-71
2022/08/24 07:00:32;;;;;;;5.05;1.13;;;14.80;99.90;;;;;;5005456;28;20191;-70
2022/08/24 07:03:02;;;;;;;5.13;1.40;;;14.70;99.90;;;;;;5004414;28;20184;-76
2022/08/24 07:05:33;;;;;;;4.50;1.10;;;14.70;99.90;;;;;;5006646;28;20468;-70
2022/08/24 07:08:05;;;;;;;4.47;1.15;;;14.60;99.90;;;;;;5006130;28;20314;-75
2022/08/24 07:10:36;;;;;;;6.95;1.08;;;14.60;99.90;;;;;;5006375;28;20201;-68
2022/08/24 07:13:10;;;;;;;5.50;1.20;;;14.40;99.90;;;;;;5005383;28;20187;-75
2022/08/24 07:15:40;;;;;;;4.13;1.30;;;14.30;99.90;;;;;;5006734;28;20274;-70
2022/08/24 07:18:14;;;;;;;5.70;1.20;;;14.30;99.90;;;;;;5008467;28;20683;-69
2022/08/24 07:20:45;;;;;;;4.10;1.23;;;14.20;99.90;;;;;;5005367;28;20206;-71
2022/08/24 07:23:16;;;;;;;7.68;1.77;;;14.20;99.90;;;;;;5006417;28;20216;-69
2022/08/24 07:25:48;;;;;;;2.50;1.08;;;14.10;99.90;;;;;;5006357;28;20203;-68
2022/08/24 07:28:20;;;;;;;4.15;1.02;;;14.00;99.90;;;;;;5005077;28;20199;-68
2022/08/24 07:30:51;;;;;;;3.35;1.20;;;14.00;99.90;;;;;;5009291;28;20195;-69
2022/08/24 07:33:22;;;;;;;5.90;1.27;;;13.90;99.90;;;;;;5004892;28;20282;-68
2022/08/24 07:35:53;;;;;;;2.95;1.10;;;13.80;99.90;;;;;;5008802;28;20199;-69
2022/08/24 07:38:23;;;;;;;4.03;1.38;;;13.80;99.90;;;;;;5006537;28;20227;-68
2022/08/24 07:40:54;;;;;;;3.83;1.00;;;13.70;99.90;;;;;;5004815;28;20206;-71
2022/08/24 07:43:27;;;;;;;4.88;1.23;;;13.60;99.90;;;;;;5007177;28;20336;-69
2022/08/24 07:45:58;;;;;;;2.95;1.33;;;13.60;99.90;;;;;;5004325;28;20194;-68
2022/08/24 07:48:30;;;;;;;6.82;1.70;;;13.50;99.90;;;;;;5006669;28;20198;-68
2022/08/24 07:51:07;;;;;;;4.65;1.50;;;13.40;99.90;;;;;;5003653;28;20277;-69
2022/08/24 07:53:38;;;;;;;2.60;1.35;;;13.40;99.90;;;;;;5006655;28;20206;-71
2022/08/24 07:56:09;;;;;;;7.57;1.63;;;13.30;99.90;;;;;;4999466;28;20578;-69
2022/08/24 07:58:42;;;;;;;7.15;1.90;;;13.30;99.90;;;;;;5004691;28;20198;-68
2022/08/24 08:01:13;;;;;;;7.93;2.03;;;13.20;99.90;;;;;;5003537;28;20249;-69
2022/08/24 08:03:44;;;;;;;6.45;1.98;;;13.20;99.90;;;;;;5008737;28;20444;-68
2022/08/24 08:06:15;;;;;;;5.63;1.55;;;13.10;99.90;;;;;;5003788;28;20221;-69
2022/08/24 08:08:46;;;;;;;4.82;1.83;;;13.00;99.90;;;;;;5005990;28;20195;-68
2022/08/24 08:11:18;;;;;;;5.50;1.95;;;13.00;99.90;;;;;;5005889;28;20198;-68
2022/08/24 08:13:53;;;;;;;5.85;2.05;;;12.90;99.90;;;;;;5005863;28;20210;-69
2022/08/24 08:16:23;;;;;;;8.10;1.95;;;12.80;99.90;;;;;;5004398;28;20296;-68
2022/08/24 08:18:54;;;;;;;5.40;1.77;;;12.80;99.90;;;;;;5005726;28;20210;-68
2022/08/24 08:24:17;;;;;;;4.45;1.52;;;12.70;99.90;;;;;;4986125;28;20810;-68
2022/08/24 08:26:49;;;;;;;4.75;1.38;;;12.70;99.90;;;;;;5001557;28;20194;-68
2022/08/24 08:29:23;;;;;;;3.85;1.40;;;12.60;99.90;;;;;;5004659;28;20198;-69
2022/08/24 08:31:54;;;;;;;4.32;1.42;;;12.50;99.90;;;;;;5007658;28;20242;-69
2022/08/24 08:34:25;;;;;;;4.30;1.30;;;12.40;99.90;;;;;;5005075;28;20199;-68
2022/08/24 08:36:56;;;;;;;6.93;1.70;;;12.40;99.90;;;;;;5001717;28;20697;-70
2022/08/24 08:39:27;;;;;;;4.28;1.65;;;12.40;99.90;;;;;;5006420;28;20206;-69
2022/08/24 08:42:45;;;;;;;5.05;1.60;;;12.40;99.90;;;;;;5005991;28;20201;-68
2022/08/24 08:45:33;;;;;;;4.70;1.70;;;12.40;99.90;;;;;;5010335;28;20297;-69
2022/08/24 08:48:33;;;;;;;41.30;24.40;;;12.30;99.90;;;;;;5010401;28;20202;-68
2022/08/24 08:51:41;;;;;;;57.40;33.88;;;12.30;99.90;;;;;;5008979;28;20206;-67
2022/08/24 08:54:30;;;;;;;7.07;2.80;;;12.20;99.90;;;;;;4981386;28;20207;-71
2022/08/24 08:57:24;;;;;;;7.00;3.00;;;12.10;99.90;;;;;;5005855;28;20196;-68
2022/08/24 09:00:14;;;;;;;5.68;2.60;;;12.10;99.90;;;;;;5002060;28;20203;-68
2022/08/24 09:03:25;;;;;;;4.50;2.03;;;12.00;99.90;;;;;;5003998;28;20195;-68
2022/08/24 09:06:30;;;;;;;8.85;2.92;;;12.00;99.90;;;;;;5001166;28;20227;-68
2022/08/24 09:09:27;;;;;;;5.70;2.78;;;12.00;99.90;;;;;;5008301;28;20282;-68
2022/08/24 09:12:09;;;;;;;5.63;2.30;;;12.10;99.90;;;;;;5009985;28;20655;-68
2022/08/24 09:15:09;;;;;;;5.63;2.35;;;12.10;99.90;;;;;;5010321;28;20194;-68
2022/08/24 09:18:02;;;;;;;5.25;2.50;;;12.10;99.90;;;;;;5009214;28;20217;-70
2022/08/24 09:21:15;;;;;;;5.78;2.50;;;12.10;99.90;;;;;;5010139;28;20298;-68
2022/08/24 09:23:59;;;;;;;4.45;2.13;;;12.00;99.90;;;;;;4996835;28;20211;-69
2022/08/24 09:26:38;;;;;;;5.22;2.42;;;12.00;99.90;;;;;;5011004;28;20193;-68
2022/08/24 09:29:16;;;;;;;5.45;2.40;;;12.00;99.90;;;;;;5009537;28;20184;-72
2022/08/24 09:32:02;;;;;;;8.80;2.80;;;11.90;99.90;;;;;;5003125;28;20195;-69
2022/08/24 09:34:40;;;;;;;5.15;2.85;;;11.90;99.90;;;;;;5008044;28;20203;-68
2022/08/24 09:37:34;;;;;;;5.57;2.70;;;11.90;99.90;;;;;;5006051;28;20231;-67
2022/08/24 09:40:30;;;;;;;8.45;3.28;;;11.90;99.90;;;;;;5004700;28;20203;-69
2022/08/24 09:43:39;;;;;;;9.48;2.90;;;12.00;99.90;;;;;;5006393;28;20202;-68
2022/08/24 09:46:40;;;;;;;6.70;2.85;;;12.00;99.90;;;;;;5003706;28;20217;-69
2022/08/24 09:49:40;;;;;;;8.35;2.42;;;12.10;99.90;;;;;;5002362;28;20192;-68
2022/08/24 09:52:46;;;;;;;9.98;3.28;;;12.10;99.90;;;;;;5009272;28;20217;-68
2022/08/24 09:55:52;;;;;;;5.22;3.38;;;12.10;99.90;;;;;;5001171;28;20199;-71
2022/08/24 09:58:53;;;;;;;11.43;3.78;;;12.20;99.90;;;;;;5004380;28;20204;-68
2022/08/24 10:01:37;;;;;;;8.70;4.07;;;12.20;99.90;;;;;;5006635;28;20199;-68
2022/08/24 10:04:22;;;;;;;6.57;3.40;;;12.30;99.90;;;;;;5008798;28;20225;-68
2022/08/24 10:07:05;;;;;;;7.82;2.88;;;12.30;99.90;;;;;;5006892;28;20202;-68
2022/08/24 10:10:00;;;;;;;7.03;2.80;;;12.30;99.90;;;;;;5007084;28;20663;-68
2022/08/24 10:12:49;;;;;;;6.30;2.70;;;12.30;99.90;;;;;;5004189;28;20199;-73
2022/08/24 10:15:26;;;;;;;3.50;2.10;;;12.40;99.90;;;;;;5008363;28;20573;-69
2022/08/24 10:18:09;;;;;;;4.85;1.77;;;12.30;99.90;;;;;;5008766;28;20571;-69
2022/08/24 10:20:55;;;;;;;4.10;1.73;;;12.30;99.90;;;;;;5005739;28;20207;-71
2022/08/24 10:23:52;;;;;;;4.05;1.17;;;12.30;99.90;;;;;;5008510;28;20199;-68
2022/08/24 10:26:33;;;;;;;3.28;1.10;;;12.20;99.90;;;;;;5006000;28;20199;-81
2022/08/24 10:29:22;;;;;;;3.33;1.20;;;12.20;99.90;;;;;;5008149;28;20669;-69
2022/08/24 10:32:09;;;;;;;2.00;1.00;;;12.20;99.90;;;;;;5009211;28;20570;-68
2022/08/24 10:34:53;;;;;;;2.75;1.00;;;12.10;99.90;;;;;;5004829;28;20191;-69
2022/08/24 10:37:51;;;;;;;3.38;1.10;;;12.10;99.90;;;;;;5002422;28;20252;-68
2022/08/24 10:40:38;;;;;;;1.15;0.70;;;12.10;99.90;;;;;;5005362;28;20207;-69
2022/08/24 10:43:37;;;;;;;2.00;0.80;;;12.10;99.90;;;;;;5004339;28;20631;-68
2022/08/24 10:46:44;;;;;;;2.45;0.70;;;12.10;99.90;;;;;;5011159;28;20230;-68
2022/08/24 10:49:46;;;;;;;1.38;0.70;;;12.10;99.90;;;;;;5011558;28;22051;-68
2022/08/24 10:52:50;;;;;;;4.75;0.75;;;12.10;99.90;;;;;;5012718;28;20301;-68
2022/08/24 10:55:25;;;;;;;1.92;0.70;;;12.10;99.90;;;;;;5012220;28;20206;-68
2022/08/24 10:58:21;;;;;;;1.60;0.60;;;12.00;99.90;;;;;;5010492;28;20198;-68
2022/08/24 11:00:52;;;;;;;2.40;0.55;;;12.00;99.90;;;;;;4987257;28;20206;-68
2022/08/24 11:03:25;;;;;;;1.17;0.60;;;12.00;99.90;;;;;;5012566;28;20199;-67
2022/08/24 11:05:58;;;;;;;1.42;0.82;;;11.90;99.90;;;;;;5012556;28;20261;-68
2022/08/24 11:08:32;;;;;;;1.17;0.50;;;11.90;99.90;;;;;;5013082;28;20191;-67
2022/08/24 11:11:12;;;;;;;2.13;0.50;;;11.90;99.90;;;;;;5012070;28;20551;-68
2022/08/24 11:13:57;;;;;;;2.47;0.63;;;11.90;99.90;;;;;;5010916;28;20662;-68
2022/08/24 11:16:31;;;;;;;2.15;0.57;;;11.80;99.90;;;;;;5011228;28;20238;-68
2022/08/24 11:19:03;;;;;;;1.15;0.60;;;11.80;99.90;;;;;;5012365;28;20676;-67
2022/08/24 11:21:52;;;;;;;1.05;0.68;;;11.80;99.90;;;;;;5007229;28;21015;-67
2022/08/24 11:24:42;;;;;;;1.17;0.70;;;11.80;99.90;;;;;;5009782;28;20218;-71
2022/08/24 11:27:30;;;;;;;1.58;0.95;;;11.80;99.90;;;;;;5007643;28;20211;-71
2022/08/24 11:30:07;;;;;;;1.02;0.70;;;11.70;99.90;;;;;;5011627;28;20210;-73
2022/08/24 11:32:43;;;;;;;1.63;0.52;;;11.70;99.90;;;;;;5012165;28;20204;-72
2022/08/24 11:35:28;;;;;;;4.22;0.80;;;11.70;99.90;;;;;;5013112;28;20190;-69
2022/08/24 11:38:05;;;;;;;1.73;0.80;;;11.60;99.90;;;;;;5006290;28;20277;-68
2022/08/24 11:40:41;;;;;;;1.95;0.75;;;11.60;99.90;;;;;;5009665;28;20571;-71
2022/08/24 11:43:41;;;;;;;1.27;0.60;;;11.60;99.90;;;;;;5012384;28;20187;-68
2022/08/24 11:46:24;;;;;;;2.03;0.75;;;11.60;99.90;;;;;;5002825;28;20226;-69
2022/08/24 11:49:04;;;;;;;2.88;1.10;;;11.50;99.90;;;;;;5011239;28;20198;-74
2022/08/24 11:51:44;;;;;;;2.65;0.70;;;11.50;99.90;;;;;;5009543;28;20197;-69
2022/08/24 11:54:23;;;;;;;2.78;0.80;;;11.40;99.90;;;;;;5012541;28;20197;-70
2022/08/24 11:57:07;;;;;;;4.07;0.90;;;11.40;99.90;;;;;;5011443;28;20202;-70
2022/08/24 11:59:47;;;;;;;2.47;1.00;;;11.40;99.90;;;;;;5011367;28;20658;-71
2022/08/24 12:02:27;;;;;;;2.78;1.17;;;11.40;99.90;;;;;;5012580;28;20556;-68
2022/08/24 12:05:04;;;;;;;2.38;1.05;;;11.40;99.90;;;;;;5003586;28;20217;-72
2022/08/24 12:07:46;;;;;;;4.40;1.30;;;11.40;99.90;;;;;;5012073;28;20191;-72
2022/08/24 12:10:27;;;;;;;1.33;0.63;;;11.30;99.90;;;;;;5011530;28;20205;-77
2022/08/24 12:13:08;;;;;;;1.48;0.70;;;11.30;99.90;;;;;;5010528;28;20207;-73
2022/08/24 12:15:45;;;;;;;2.15;0.80;;;11.20;99.90;;;;;;5011285;28;20241;-68
2022/08/24 12:18:28;;;;;;;1.15;0.52;;;11.20;99.90;;;;;;5011187;28;20202;-69
2022/08/24 12:20:59;;;;;;;2.15;0.60;;;11.20;99.90;;;;;;5009884;28;20233;-76
2022/08/24 12:23:34;;;;;;;1.48;0.60;;;11.20;99.90;;;;;;5012355;28;20195;-69
2022/08/24 12:26:12;;;;;;;1.77;0.60;;;11.20;99.90;;;;;;5008615;28;20219;-68
2022/08/24 12:28:49;;;;;;;3.60;0.60;;;11.20;99.90;;;;;;5010361;28;20199;-69
2022/08/24 12:31:23;;;;;;;2.05;0.80;;;11.20;99.90;;;;;;5005519;28;20187;-70
2022/08/24 12:33:57;;;;;;;0.88;0.60;;;11.20;99.90;;;;;;5011117;28;20198;-69
2022/08/24 12:36:33;;;;;;;2.03;0.70;;;11.20;99.90;;;;;;5005034;28;20246;-69
2022/08/24 12:39:11;;;;;;;0.73;0.50;;;11.10;99.90;;;;;;5010564;28;20240;-70
2022/08/24 12:41:50;;;;;;;1.48;0.50;;;11.10;99.90;;;;;;5012052;28;20549;-69
2022/08/24 12:44:28;;;;;;;1.25;0.50;;;11.10;99.90;;;;;;5009550;28;20296;-69
2022/08/24 12:46:58;;;;;;;1.45;0.50;;;11.10;99.90;;;;;;5011413;28;20258;-68
2022/08/24 12:49:35;;;;;;;1.60;0.55;;;11.10;99.90;;;;;;5011392;28;20209;-71
2022/08/24 12:52:22;;;;;;;3.85;0.80;;;11.10;99.90;;;;;;5010565;28;20230;-68
2022/08/24 12:55:09;;;;;;;2.35;0.60;;;11.10;99.90;;;;;;5008221;28;20298;-68
2022/08/24 12:57:51;;;;;;;1.90;0.63;;;11.10;99.90;;;;;;5010404;28;20203;-78
2022/08/24 13:00:28;;;;;;;1.58;0.55;;;11.00;99.90;;;;;;5009949;28;20683;-69
2022/08/24 13:03:02;;;;;;;1.40;0.70;;;11.00;99.90;;;;;;5011970;28;20187;-68
2022/08/24 13:05:43;;;;;;;1.10;0.60;;;11.00;99.90;;;;;;5004752;28;20210;-69
2022/08/24 13:08:34;;;;;;;0.82;0.50;;;10.90;99.90;;;;;;5011138;28;20199;-68
2022/08/24 13:11:09;;;;;;;1.38;0.70;;;10.90;99.90;;;;;;5010359;28;20206;-71
2022/08/24 13:13:46;;;;;;;0.63;0.60;;;10.90;99.90;;;;;;5005178;28;20193;-68
2022/08/24 13:16:52;;;;;;;0.60;0.60;;;10.90;99.90;;;;;;5010990;28;20210;-68
2022/08/24 13:19:39;;;;;;;1.25;0.70;;;10.90;99.90;;;;;;5010780;28;20222;-68
2022/08/24 13:22:47;;;;;;;1.48;0.63;;;10.80;99.90;;;;;;5006461;28;20227;-75
2022/08/24 13:25:52;;;;;;;2.08;0.80;;;10.80;99.90;;;;;;5010681;28;20219;-76
2022/08/24 13:28:47;;;;;;;1.45;0.60;;;10.80;99.90;;;;;;5010401;28;20198;-76
2022/08/24 13:31:34;;;;;;;1.05;0.60;;;10.80;99.90;;;;;;5012082;28;20202;-75
2022/08/24 13:34:41;;;;;;;1.13;0.80;;;10.80;99.90;;;;;;5015254;28;20222;-71
2022/08/24 13:37:17;;;;;;;1.80;0.70;;;10.70;99.90;;;;;;5009309;28;20234;-74
2022/08/24 13:40:09;;;;;;;1.90;0.70;;;10.70;99.90;;;;;;5006982;28;20658;-69
2022/08/24 13:42:55;;;;;;;1.58;0.93;;;10.70;99.90;;;;;;5013377;28;20252;-68
2022/08/24 13:45:34;;;;;;;2.67;0.80;;;10.60;99.90;;;;;;5014692;28;20571;-69